sensor_id;sensor_type;location;lat;lon;timestamp;pressure;altitude;pressure_sealevel;temperature;humidity
48095;BME280;33874;52.070;-0.516;2023-04-08T00:29:36;102023.98;;;6.40;64.63
48095;BME280;33874;52.070;-0.516;2023-04-08T03:09:02;102065.17;;;4.45;68.52
48095;BME280;33874;52.070;-0.516;2023-04-08T04:50:23;102135.91;;;4.34;70.37
48095;BME280;33874;52.070;-0.516;2023-04-08T05:09:05;102148.27;;;4.29;71.32
48095;BME280;33874;52.070;-0.516;2023-04-08T06:00:47;102186.73;;;4.20;72.77
48095;BME280;33874;52.070;-0.516;2023-04-08T06:11:14;102195.89;;;4.46;73.24
48095;BME280;33874;52.070;-0.516;2023-04-08T06:15:11;102202.08;;;4.48;72.88
48095;BME280;33874;52.070;-0.516;2023-04-08T06:21:38;102208.29;;;4.60;73.03
48095;BME280;33874;52.070;-0.516;2023-04-08T06:25:22;102209.57;;;4.62;72.80
48095;BME280;33874;52.070;-0.516;2023-04-08T06:28:52;102208.95;;;4.60;72.55
48095;BME280;33874;52.070;-0.516;2023-04-08T06:35:02;102220.81;;;4.64;72.50
48095;BME280;33874;52.070;-0.516;2023-04-08T06:37:54;102229.02;;;4.69;72.25
48095;BME280;33874;52.070;-0.516;2023-04-08T06:40:26;102228.89;;;4.72;72.32
48095;BME280;33874;52.070;-0.516;2023-04-08T06:43:14;102231.27;;;4.73;72.35
48095;BME280;33874;52.070;-0.516;2023-04-08T06:46:51;102236.00;;;4.73;72.21
48095;BME280;33874;52.070;-0.516;2023-04-08T07:00:52;102247.55;;;5.18;73.48
48095;BME280;33874;52.070;-0.516;2023-04-08T07:08:25;102250.64;;;5.50;73.46
48095;BME280;33874;52.070;-0.516;2023-04-08T07:11:20;102254.17;;;5.62;73.50
48095;BME280;33874;52.070;-0.516;2023-04-08T07:16:46;102249.75;;;5.86;73.51
48095;BME280;33874;52.070;-0.516;2023-04-08T07:19:23;102252.31;;;6.00;73.62
48095;BME280;33874;52.070;-0.516;2023-04-08T07:22:31;102253.65;;;6.10;73.61
48095;BME280;33874;52.070;-0.516;2023-04-08T07:25:09;102257.54;;;6.17;73.58
48095;BME280;33874;52.070;-0.516;2023-04-08T07:27:50;102254.94;;;6.25;73.55
48095;BME280;33874;52.070;-0.516;2023-04-08T07:30:46;102255.15;;;6.28;73.26
48095;BME280;33874;52.070;-0.516;2023-04-08T07:33:15;102256.30;;;6.30;73.23
48095;BME280;33874;52.070;-0.516;2023-04-08T07:36:09;102260.45;;;6.31;73.07
48095;BME280;33874;52.070;-0.516;2023-04-08T07:38:40;102264.99;;;6.39;72.78
48095;BME280;33874;52.070;-0.516;2023-04-08T07:41:25;102268.71;;;6.46;72.80
48095;BME280;33874;52.070;-0.516;2023-04-08T07:44:32;102274.46;;;6.46;72.19
48095;BME280;33874;52.070;-0.516;2023-04-08T07:47:07;102275.23;;;6.44;72.08
48095;BME280;33874;52.070;-0.516;2023-04-08T07:50:22;102277.22;;;6.51;72.57
48095;BME280;33874;52.070;-0.516;2023-04-08T07:52:47;102273.12;;;6.61;72.80
48095;BME280;33874;52.070;-0.516;2023-04-08T07:55:16;102278.33;;;6.65;72.91
48095;BME280;33874;52.070;-0.516;2023-04-08T07:57:53;102280.57;;;6.74;73.12
48095;BME280;33874;52.070;-0.516;2023-04-08T08:00:26;102283.54;;;6.90;73.17
48095;BME280;33874;52.070;-0.516;2023-04-08T08:02:54;102284.64;;;6.96;72.40
48095;BME280;33874;52.070;-0.516;2023-04-08T08:05:23;102294.42;;;6.92;72.46
48095;BME280;33874;52.070;-0.516;2023-04-08T08:07:54;102297.79;;;7.03;73.06
48095;BME280;33874;52.070;-0.516;2023-04-08T08:10:23;102297.27;;;7.15;72.68
48095;BME280;33874;52.070;-0.516;2023-04-08T08:12:52;102301.10;;;7.30;72.87
48095;BME280;33874;52.070;-0.516;2023-04-08T08:15:30;102300.33;;;7.50;72.87
48095;BME280;33874;52.070;-0.516;2023-04-08T08:18:49;102303.00;;;7.68;72.80
48095;BME280;33874;52.070;-0.516;2023-04-08T08:21:22;102307.71;;;7.83;72.84
48095;BME280;33874;52.070;-0.516;2023-04-08T08:23:56;102306.59;;;7.98;72.62
48095;BME280;33874;52.070;-0.516;2023-04-08T08:26:44;102305.91;;;8.09;72.51
48095;BME280;33874;52.070;-0.516;2023-04-08T08:29:20;102302.20;;;8.13;72.08
48095;BME280;33874;52.070;-0.516;2023-04-08T08:32:37;102306.95;;;8.27;72.54
48095;BME280;33874;52.070;-0.516;2023-04-08T08:35:15;102300.09;;;8.38;72.06
48095;BME280;33874;52.070;-0.516;2023-04-08T08:38:00;102298.59;;;8.43;71.66
48095;BME280;33874;52.070;-0.516;2023-04-08T08:40:32;102305.42;;;8.57;72.05
48095;BME280;33874;52.070;-0.516;2023-04-08T08:43:00;102305.30;;;8.69;71.96
48095;BME280;33874;52.070;-0.516;2023-04-08T08:45:31;102305.03;;;8.81;72.06
48095;BME280;33874;52.070;-0.516;2023-04-08T08:48:06;102309.84;;;8.97;72.27
48095;BME280;33874;52.070;-0.516;2023-04-08T08:50:46;102309.06;;;9.11;71.97
48095;BME280;33874;52.070;-0.516;2023-04-08T08:53:15;102304.85;;;9.21;71.63
48095;BME280;33874;52.070;-0.516;2023-04-08T08:55:46;102303.79;;;9.40;71.17
48095;BME280;33874;52.070;-0.516;2023-04-08T08:58:19;102308.32;;;9.63;71.40
48095;BME280;33874;52.070;-0.516;2023-04-08T09:00:47;102309.33;;;9.79;71.32
48095;BME280;33874;52.070;-0.516;2023-04-08T09:08:22;102307.73;;;10.43;70.88
48095;BME280;33874;52.070;-0.516;2023-04-08T09:10:51;102308.52;;;10.54;70.35
48095;BME280;33874;52.070;-0.516;2023-04-08T09:13:21;102306.50;;;10.55;70.17
48095;BME280;33874;52.070;-0.516;2023-04-08T09:16:00;102304.63;;;10.63;70.15
48095;BME280;33874;52.070;-0.516;2023-04-08T09:18:31;102302.23;;;10.68;69.70
48095;BME280;33874;52.070;-0.516;2023-04-08T09:21:00;102303.20;;;10.75;70.00
48095;BME280;33874;52.070;-0.516;2023-04-08T09:26:23;102305.77;;;10.99;69.57
48095;BME280;33874;52.070;-0.516;2023-04-08T09:29:08;102307.52;;;10.99;69.26
48095;BME280;33874;52.070;-0.516;2023-04-08T09:32:21;102311.30;;;11.06;69.40
48095;BME280;33874;52.070;-0.516;2023-04-08T09:35:14;102309.16;;;11.18;69.23
48095;BME280;33874;52.070;-0.516;2023-04-08T09:37:47;102309.02;;;11.26;69.31
48095;BME280;33874;52.070;-0.516;2023-04-08T09:40:22;102308.98;;;11.38;69.16
48095;BME280;33874;52.070;-0.516;2023-04-08T09:42:52;102314.44;;;11.43;68.75
48095;BME280;33874;52.070;-0.516;2023-04-08T09:45:21;102310.88;;;11.41;68.44
48095;BME280;33874;52.070;-0.516;2023-04-08T09:48:31;102313.41;;;11.45;68.64
48095;BME280;33874;52.070;-0.516;2023-04-08T09:51:00;102318.18;;;11.45;68.41
48095;BME280;33874;52.070;-0.516;2023-04-08T09:53:41;102312.73;;;11.50;68.49
48095;BME280;33874;52.070;-0.516;2023-04-08T09:56:13;102313.02;;;11.51;68.32
48095;BME280;33874;52.070;-0.516;2023-04-08T09:58:58;102313.85;;;11.63;68.72
48095;BME280;33874;52.070;-0.516;2023-04-08T10:01:51;102313.70;;;11.85;68.93
48095;BME280;33874;52.070;-0.516;2023-04-08T10:04:32;102316.15;;;12.07;68.75
48095;BME280;33874;52.070;-0.516;2023-04-08T10:07:03;102313.97;;;12.21;68.45
48095;BME280;33874;52.070;-0.516;2023-04-08T10:09:52;102311.05;;;12.28;67.99
48095;BME280;33874;52.070;-0.516;2023-04-08T10:12:28;102309.98;;;12.35;67.91
48095;BME280;33874;52.070;-0.516;2023-04-08T10:17:49;102310.98;;;12.55;67.27
48095;BME280;33874;52.070;-0.516;2023-04-08T10:23:11;102305.27;;;12.71;66.76
48095;BME280;33874;52.070;-0.516;2023-04-08T10:25:47;102307.16;;;12.82;66.55
48095;BME280;33874;52.070;-0.516;2023-04-08T10:30:56;102299.82;;;12.91;65.95
48095;BME280;33874;52.070;-0.516;2023-04-08T10:36:18;102301.23;;;12.98;65.36
48095;BME280;33874;52.070;-0.516;2023-04-08T10:38:53;102306.94;;;12.87;64.73
48095;BME280;33874;52.070;-0.516;2023-04-08T10:41:24;102308.91;;;12.92;65.11
48095;BME280;33874;52.070;-0.516;2023-04-08T10:46:54;102301.08;;;13.28;64.06
48095;BME280;33874;52.070;-0.516;2023-04-08T10:49:23;102299.39;;;13.39;63.09
48095;BME280;33874;52.070;-0.516;2023-04-08T10:52:25;102295.46;;;13.45;62.62
48095;BME280;33874;52.070;-0.516;2023-04-08T10:55:00;102295.15;;;13.57;62.79
48095;BME280;33874;52.070;-0.516;2023-04-08T10:57:36;102287.36;;;13.69;62.06
48095;BME280;33874;52.070;-0.516;2023-04-08T11:00:10;102286.84;;;13.69;61.54
48095;BME280;33874;52.070;-0.516;2023-04-08T11:02:39;102287.70;;;13.72;61.34
48095;BME280;33874;52.070;-0.516;2023-04-08T11:05:08;102282.34;;;13.77;60.86
48095;BME280;33874;52.070;-0.516;2023-04-08T11:07:52;102280.04;;;13.82;60.83
48095;BME280;33874;52.070;-0.516;2023-04-08T11:10:38;102275.69;;;13.95;60.88
48095;BME280;33874;52.070;-0.516;2023-04-08T11:13:19;102267.12;;;14.01;60.36
48095;BME280;33874;52.070;-0.516;2023-04-08T11:16:24;102268.48;;;13.94;59.71
48095;BME280;33874;52.070;-0.516;2023-04-08T11:19:06;102266.27;;;13.91;59.30
48095;BME280;33874;52.070;-0.516;2023-04-08T11:21:37;102265.18;;;14.01;59.59
48095;BME280;33874;52.070;-0.516;2023-04-08T11:24:10;102259.56;;;14.14;59.63
48095;BME280;33874;52.070;-0.516;2023-04-08T11:29:55;102258.61;;;14.48;58.79
48095;BME280;33874;52.070;-0.516;2023-04-08T11:32:32;102255.09;;;14.57;58.62
48095;BME280;33874;52.070;-0.516;2023-04-08T11:35:40;102252.20;;;14.75;58.81
48095;BME280;33874;52.070;-0.516;2023-04-08T11:38:09;102255.52;;;14.92;58.21
48095;BME280;33874;52.070;-0.516;2023-04-08T11:41:22;102252.23;;;14.96;56.93
48095;BME280;33874;52.070;-0.516;2023-04-08T11:43:55;102251.86;;;14.96;56.63
48095;BME280;33874;52.070;-0.516;2023-04-08T11:46:25;102253.02;;;15.05;56.44
48095;BME280;33874;52.070;-0.516;2023-04-08T11:49:24;102248.48;;;15.11;55.98
48095;BME280;33874;52.070;-0.516;2023-04-08T11:51:59;102250.64;;;15.33;56.28
48095;BME280;33874;52.070;-0.516;2023-04-08T11:54:40;102252.59;;;15.54;56.30
48095;BME280;33874;52.070;-0.516;2023-04-08T11:57:37;102253.59;;;15.72;55.72
48095;BME280;33874;52.070;-0.516;2023-04-08T12:00:09;102245.93;;;15.83;55.50
48095;BME280;33874;52.070;-0.516;2023-04-08T12:02:52;102247.89;;;15.83;54.83
48095;BME280;33874;52.070;-0.516;2023-04-08T12:05:50;102247.27;;;15.84;53.76
48095;BME280;33874;52.070;-0.516;2023-04-08T12:08:43;102255.48;;;15.77;53.03
48095;BME280;33874;52.070;-0.516;2023-04-08T12:11:46;102250.63;;;15.57;53.03
48095;BME280;33874;52.070;-0.516;2023-04-08T12:18:11;102249.33;;;15.31;53.61
48095;BME280;33874;52.070;-0.516;2023-04-08T12:21:38;102249.35;;;15.49;53.45
48095;BME280;33874;52.070;-0.516;2023-04-08T12:41:04;102218.09;;;16.50;51.56
48095;BME280;33874;52.070;-0.516;2023-04-08T13:07:55;102223.61;;;16.87;49.46
48095;BME280;33874;52.070;-0.516;2023-04-08T13:15:29;102222.86;;;17.09;48.41
48095;BME280;33874;52.070;-0.516;2023-04-08T15:03:41;102154.71;;;17.34;42.57
48095;BME280;33874;52.070;-0.516;2023-04-08T15:07:01;102150.89;;;17.09;42.54
48095;BME280;33874;52.070;-0.516;2023-04-08T23:48:54;102167.85;;;7.79;69.13
48095;BME280;33874;52.070;-0.516;2023-04-08T23:56:07;102169.02;;;7.84;69.73
